sensor_id;sensor_type;location;lat;lon;timestamp;temperature;humidity
43884;DHT22;29544;52.018;5.810;2023-03-14T00:00:34;18.90;54.00
43884;DHT22;29544;52.018;5.810;2023-03-14T00:03:00;18.90;54.10
43884;DHT22;29544;52.018;5.810;2023-03-14T00:05:26;18.90;54.00
43884;DHT22;29544;52.018;5.810;2023-03-14T00:07:51;18.90;54.00
43884;DHT22;29544;52.018;5.810;2023-03-14T00:10:17;18.80;54.00
43884;DHT22;29544;52.018;5.810;2023-03-14T00:12:43;18.80;54.00
43884;DHT22;29544;52.018;5.810;2023-03-14T00:15:09;18.80;54.00
43884;DHT22;29544;52.018;5.810;2023-03-14T00:17:35;18.80;54.10
43884;DHT22;29544;52.018;5.810;2023-03-14T00:20:02;18.80;54.00
43884;DHT22;29544;52.018;5.810;2023-03-14T00:22:34;18.80;54.00
43884;DHT22;29544;52.018;5.810;2023-03-14T00:24:59;18.80;54.00
43884;DHT22;29544;52.018;5.810;2023-03-14T00:27:25;18.70;54.00
43884;DHT22;29544;52.018;5.810;2023-03-14T00:29:51;18.70;53.90
43884;DHT22;29544;52.018;5.810;2023-03-14T00:32:16;18.70;54.00
43884;DHT22;29544;52.018;5.810;2023-03-14T00:34:42;18.70;54.00
43884;DHT22;29544;52.018;5.810;2023-03-14T00:37:07;18.70;54.00
43884;DHT22;29544;52.018;5.810;2023-03-14T00:39:33;18.70;54.00
43884;DHT22;29544;52.018;5.810;2023-03-14T00:41:58;18.70;54.00
43884;DHT22;29544;52.018;5.810;2023-03-14T00:44:24;18.70;54.00
43884;DHT22;29544;52.018;5.810;2023-03-14T00:46:50;18.70;54.00
43884;DHT22;29544;52.018;5.810;2023-03-14T00:49:15;18.60;54.00
43884;DHT22;29544;52.018;5.810;2023-03-14T00:51:41;18.60;54.00
43884;DHT22;29544;52.018;5.810;2023-03-14T00:54:07;18.60;54.00
43884;DHT22;29544;52.018;5.810;2023-03-14T00:56:32;18.60;54.00
43884;DHT22;29544;52.018;5.810;2023-03-14T00:58:58;18.60;54.00
43884;DHT22;29544;52.018;5.810;2023-03-14T01:01:23;18.60;54.00
43884;DHT22;29544;52.018;5.810;2023-03-14T01:03:54;18.50;53.90
43884;DHT22;29544;52.018;5.810;2023-03-14T01:06:22;18.60;54.00
43884;DHT22;29544;52.018;5.810;2023-03-14T01:08:48;18.50;54.00
43884;DHT22;29544;52.018;5.810;2023-03-14T01:11:19;18.60;54.00
43884;DHT22;29544;52.018;5.810;2023-03-14T01:13:45;18.50;54.00
43884;DHT22;29544;52.018;5.810;2023-03-14T01:16:12;18.50;54.00
43884;DHT22;29544;52.018;5.810;2023-03-14T01:18:39;18.50;54.10
43884;DHT22;29544;52.018;5.810;2023-03-14T01:21:21;18.50;54.00
43884;DHT22;29544;52.018;5.810;2023-03-14T01:23:47;18.50;54.00
43884;DHT22;29544;52.018;5.810;2023-03-14T01:26:15;18.50;54.00
43884;DHT22;29544;52.018;5.810;2023-03-14T01:28:41;18.50;54.00
43884;DHT22;29544;52.018;5.810;2023-03-14T01:31:09;18.50;54.10
43884;DHT22;29544;52.018;5.810;2023-03-14T01:33:35;18.40;54.00
43884;DHT22;29544;52.018;5.810;2023-03-14T01:36:01;18.40;54.00
43884;DHT22;29544;52.018;5.810;2023-03-14T01:38:31;18.40;54.00
43884;DHT22;29544;52.018;5.810;2023-03-14T01:40:57;18.40;54.00
43884;DHT22;29544;52.018;5.810;2023-03-14T01:43:23;18.40;54.00
43884;DHT22;29544;52.018;5.810;2023-03-14T01:46:06;18.40;54.00
43884;DHT22;29544;52.018;5.810;2023-03-14T01:48:44;18.40;54.00
43884;DHT22;29544;52.018;5.810;2023-03-14T01:51:21;18.40;54.10
43884;DHT22;29544;52.018;5.810;2023-03-14T01:53:49;18.30;54.00
43884;DHT22;29544;52.018;5.810;2023-03-14T01:56:17;18.30;54.00
43884;DHT22;29544;52.018;5.810;2023-03-14T01:58:46;18.30;54.00
43884;DHT22;29544;52.018;5.810;2023-03-14T02:01:15;18.30;54.10
43884;DHT22;29544;52.018;5.810;2023-03-14T02:03:54;18.30;54.70
43884;DHT22;29544;52.018;5.810;2023-03-14T02:06:24;18.30;54.00
43884;DHT22;29544;52.018;5.810;2023-03-14T02:08:51;18.30;54.10
43884;DHT22;29544;52.018;5.810;2023-03-14T02:11:17;18.30;54.10
43884;DHT22;29544;52.018;5.810;2023-03-14T02:13:43;18.30;54.10
43884;DHT22;29544;52.018;5.810;2023-03-14T02:16:09;18.20;54.10
43884;DHT22;29544;52.018;5.810;2023-03-14T02:18:35;18.30;54.10
43884;DHT22;29544;52.018;5.810;2023-03-14T02:21:12;18.30;54.10
43884;DHT22;29544;52.018;5.810;2023-03-14T02:26:36;18.20;54.10
43884;DHT22;29544;52.018;5.810;2023-03-14T02:29:03;18.20;54.10
43884;DHT22;29544;52.018;5.810;2023-03-14T02:31:29;18.20;54.10
43884;DHT22;29544;52.018;5.810;2023-03-14T02:33:56;18.20;54.20
43884;DHT22;29544;52.018;5.810;2023-03-14T02:36:22;18.20;54.20
43884;DHT22;29544;52.018;5.810;2023-03-14T02:41:26;18.10;54.10
43884;DHT22;29544;52.018;5.810;2023-03-14T02:43:51;18.10;54.10
43884;DHT22;29544;52.018;5.810;2023-03-14T02:46:20;18.10;54.10
43884;DHT22;29544;52.018;5.810;2023-03-14T02:48:53;18.10;54.10
43884;DHT22;29544;52.018;5.810;2023-03-14T02:51:21;18.10;54.20
43884;DHT22;29544;52.018;5.810;2023-03-14T02:53:46;18.10;54.10
43884;DHT22;29544;52.018;5.810;2023-03-14T02:56:12;18.10;54.10
43884;DHT22;29544;52.018;5.810;2023-03-14T02:58:38;18.10;54.20
43884;DHT22;29544;52.018;5.810;2023-03-14T03:01:04;18.10;54.10
43884;DHT22;29544;52.018;5.810;2023-03-14T03:03:30;18.00;54.10
43884;DHT22;29544;52.018;5.810;2023-03-14T03:05:56;18.00;54.10
43884;DHT22;29544;52.018;5.810;2023-03-14T03:08:24;18.00;54.10
43884;DHT22;29544;52.018;5.810;2023-03-14T03:10:50;18.00;54.20
43884;DHT22;29544;52.018;5.810;2023-03-14T03:13:16;18.00;54.10
43884;DHT22;29544;52.018;5.810;2023-03-14T03:15:42;18.00;54.20
43884;DHT22;29544;52.018;5.810;2023-03-14T03:18:07;18.00;54.20
43884;DHT22;29544;52.018;5.810;2023-03-14T03:20:33;18.00;54.20
43884;DHT22;29544;52.018;5.810;2023-03-14T03:22:59;18.00;54.20
43884;DHT22;29544;52.018;5.810;2023-03-14T03:25:25;18.00;54.20
43884;DHT22;29544;52.018;5.810;2023-03-14T03:27:51;18.00;54.20
43884;DHT22;29544;52.018;5.810;2023-03-14T03:30:16;18.00;54.20
43884;DHT22;29544;52.018;5.810;2023-03-14T03:32:42;17.90;54.20
43884;DHT22;29544;52.018;5.810;2023-03-14T03:35:08;17.90;54.20
43884;DHT22;29544;52.018;5.810;2023-03-14T03:37:34;17.90;54.20
43884;DHT22;29544;52.018;5.810;2023-03-14T03:40:00;17.90;54.20
43884;DHT22;29544;52.018;5.810;2023-03-14T03:42:26;17.90;54.20
43884;DHT22;29544;52.018;5.810;2023-03-14T03:44:52;17.90;54.20
43884;DHT22;29544;52.018;5.810;2023-03-14T03:47:18;17.90;54.20
43884;DHT22;29544;52.018;5.810;2023-03-14T03:49:43;17.90;54.20
43884;DHT22;29544;52.018;5.810;2023-03-14T03:52:09;17.90;54.20
43884;DHT22;29544;52.018;5.810;2023-03-14T03:54:35;17.80;54.20
43884;DHT22;29544;52.018;5.810;2023-03-14T03:57:00;17.90;54.20
43884;DHT22;29544;52.018;5.810;2023-03-14T03:59:26;17.80;54.20
43884;DHT22;29544;52.018;5.810;2023-03-14T04:01:51;17.80;54.20
43884;DHT22;29544;52.018;5.810;2023-03-14T04:04:17;17.90;54.30
43884;DHT22;29544;52.018;5.810;2023-03-14T04:06:42;17.80;54.20
43884;DHT22;29544;52.018;5.810;2023-03-14T04:09:11;17.80;54.20
43884;DHT22;29544;52.018;5.810;2023-03-14T04:11:37;17.90;54.30
43884;DHT22;29544;52.018;5.810;2023-03-14T04:14:03;17.80;54.20
43884;DHT22;29544;52.018;5.810;2023-03-14T04:16:30;17.80;54.30
43884;DHT22;29544;52.018;5.810;2023-03-14T04:18:57;17.80;54.20
43884;DHT22;29544;52.018;5.810;2023-03-14T04:21:23;17.80;54.30
43884;DHT22;29544;52.018;5.810;2023-03-14T04:23:49;17.80;54.30
43884;DHT22;29544;52.018;5.810;2023-03-14T04:26:15;17.80;54.30
43884;DHT22;29544;52.018;5.810;2023-03-14T04:28:41;17.70;54.20
43884;DHT22;29544;52.018;5.810;2023-03-14T04:31:16;17.70;54.20
43884;DHT22;29544;52.018;5.810;2023-03-14T04:33:41;17.70;54.20
43884;DHT22;29544;52.018;5.810;2023-03-14T04:36:08;17.70;54.20
43884;DHT22;29544;52.018;5.810;2023-03-14T04:38:34;17.70;54.30
43884;DHT22;29544;52.018;5.810;2023-03-14T04:41:00;17.70;54.20
43884;DHT22;29544;52.018;5.810;2023-03-14T04:43:26;17.70;54.20
43884;DHT22;29544;52.018;5.810;2023-03-14T04:45:53;17.70;54.20
43884;DHT22;29544;52.018;5.810;2023-03-14T04:48:19;17.70;54.20
43884;DHT22;29544;52.018;5.810;2023-03-14T04:50:46;17.70;54.20
43884;DHT22;29544;52.018;5.810;2023-03-14T04:53:12;17.70;54.30
43884;DHT22;29544;52.018;5.810;2023-03-14T04:55:38;17.70;54.20
43884;DHT22;29544;52.018;5.810;2023-03-14T04:58:03;17.70;54.20
43884;DHT22;29544;52.018;5.810;2023-03-14T05:00:29;17.70;54.20
43884;DHT22;29544;52.018;5.810;2023-03-14T05:02:54;17.60;54.20
43884;DHT22;29544;52.018;5.810;2023-03-14T05:05:20;17.60;54.20
43884;DHT22;29544;52.018;5.810;2023-03-14T05:07:46;17.60;54.20
43884;DHT22;29544;52.018;5.810;2023-03-14T05:10:11;17.60;54.20
43884;DHT22;29544;52.018;5.810;2023-03-14T05:12:37;17.60;54.20
43884;DHT22;29544;52.018;5.810;2023-03-14T05:15:03;17.60;54.20
43884;DHT22;29544;52.018;5.810;2023-03-14T05:17:30;17.60;54.20
43884;DHT22;29544;52.018;5.810;2023-03-14T05:19:55;17.60;54.20
43884;DHT22;29544;52.018;5.810;2023-03-14T05:22:21;17.60;54.20
43884;DHT22;29544;52.018;5.810;2023-03-14T05:24:46;17.60;54.20
43884;DHT22;29544;52.018;5.810;2023-03-14T05:27:12;17.60;54.20
43884;DHT22;29544;52.018;5.810;2023-03-14T05:29:38;17.60;54.20
43884;DHT22;29544;52.018;5.810;2023-03-14T05:32:03;17.50;54.20
43884;DHT22;29544;52.018;5.810;2023-03-14T05:34:29;17.50;54.80
43884;DHT22;29544;52.018;5.810;2023-03-14T05:36:55;17.50;54.20
43884;DHT22;29544;52.018;5.810;2023-03-14T05:39:21;17.50;54.20
43884;DHT22;29544;52.018;5.810;2023-03-14T05:41:47;17.50;54.20
43884;DHT22;29544;52.018;5.810;2023-03-14T05:44:12;17.50;54.20
43884;DHT22;29544;52.018;5.810;2023-03-14T05:46:38;17.50;54.20
43884;DHT22;29544;52.018;5.810;2023-03-14T05:49:03;17.50;54.20
43884;DHT22;29544;52.018;5.810;2023-03-14T05:51:29;17.50;54.20
43884;DHT22;29544;52.018;5.810;2023-03-14T05:53:54;17.50;54.30
43884;DHT22;29544;52.018;5.810;2023-03-14T05:56:20;17.50;54.30
43884;DHT22;29544;52.018;5.810;2023-03-14T05:58:45;17.50;54.20
43884;DHT22;29544;52.018;5.810;2023-03-14T06:01:11;17.50;54.30
43884;DHT22;29544;52.018;5.810;2023-03-14T06:03:36;17.50;54.30
43884;DHT22;29544;52.018;5.810;2023-03-14T06:06:02;17.50;54.30
43884;DHT22;29544;52.018;5.810;2023-03-14T06:08:27;17.50;54.30
43884;DHT22;29544;52.018;5.810;2023-03-14T06:10:53;17.50;54.30
43884;DHT22;29544;52.018;5.810;2023-03-14T06:13:20;17.50;54.30
43884;DHT22;29544;52.018;5.810;2023-03-14T06:15:45;17.50;54.30
43884;DHT22;29544;52.018;5.810;2023-03-14T06:18:11;17.40;54.40
43884;DHT22;29544;52.018;5.810;2023-03-14T06:20:38;17.40;54.30
43884;DHT22;29544;52.018;5.810;2023-03-14T06:23:07;17.40;54.30
43884;DHT22;29544;52.018;5.810;2023-03-14T06:25:33;17.40;54.30
43884;DHT22;29544;52.018;5.810;2023-03-14T06:27:59;17.40;54.30
43884;DHT22;29544;52.018;5.810;2023-03-14T06:30:25;17.40;54.30
43884;DHT22;29544;52.018;5.810;2023-03-14T06:32:50;17.40;54.40
43884;DHT22;29544;52.018;5.810;2023-03-14T06:35:16;17.40;54.40
43884;DHT22;29544;52.018;5.810;2023-03-14T06:37:42;17.40;54.40
43884;DHT22;29544;52.018;5.810;2023-03-14T06:40:09;17.40;54.40
43884;DHT22;29544;52.018;5.810;2023-03-14T06:42:35;17.40;54.40
43884;DHT22;29544;52.018;5.810;2023-03-14T06:45:01;17.40;54.40
43884;DHT22;29544;52.018;5.810;2023-03-14T06:47:26;17.40;54.40
43884;DHT22;29544;52.018;5.810;2023-03-14T06:49:52;17.40;54.40
43884;DHT22;29544;52.018;5.810;2023-03-14T06:52:17;17.30;54.40
43884;DHT22;29544;52.018;5.810;2023-03-14T06:54:43;17.30;54.40
43884;DHT22;29544;52.018;5.810;2023-03-14T06:57:08;17.30;54.40
43884;DHT22;29544;52.018;5.810;2023-03-14T06:59:34;17.30;54.40
43884;DHT22;29544;52.018;5.810;2023-03-14T07:01:59;17.30;54.30
43884;DHT22;29544;52.018;5.810;2023-03-14T07:04:25;17.30;54.50
43884;DHT22;29544;52.018;5.810;2023-03-14T07:06:50;17.30;54.70
43884;DHT22;29544;52.018;5.810;2023-03-14T07:09:16;17.30;54.90
43884;DHT22;29544;52.018;5.810;2023-03-14T07:11:44;17.30;55.00
43884;DHT22;29544;52.018;5.810;2023-03-14T07:14:10;17.30;54.80
43884;DHT22;29544;52.018;5.810;2023-03-14T07:16:35;17.30;55.00
43884;DHT22;29544;52.018;5.810;2023-03-14T07:19:01;17.30;55.10
43884;DHT22;29544;52.018;5.810;2023-03-14T07:21:28;17.30;55.10
43884;DHT22;29544;52.018;5.810;2023-03-14T07:23:53;17.30;55.00
43884;DHT22;29544;52.018;5.810;2023-03-14T07:26:19;17.30;55.20
43884;DHT22;29544;52.018;5.810;2023-03-14T07:28:44;17.30;55.20
43884;DHT22;29544;52.018;5.810;2023-03-14T07:31:10;17.30;55.30
43884;DHT22;29544;52.018;5.810;2023-03-14T07:33:35;17.40;55.40
43884;DHT22;29544;52.018;5.810;2023-03-14T07:36:01;17.30;55.30
43884;DHT22;29544;52.018;5.810;2023-03-14T07:38:27;17.30;55.30
43884;DHT22;29544;52.018;5.810;2023-03-14T07:41:00;17.30;55.30
43884;DHT22;29544;52.018;5.810;2023-03-14T07:43:26;17.30;55.30
43884;DHT22;29544;52.018;5.810;2023-03-14T07:45:51;17.30;55.30
43884;DHT22;29544;52.018;5.810;2023-03-14T07:48:17;17.30;55.30
43884;DHT22;29544;52.018;5.810;2023-03-14T07:50:43;17.30;55.40
43884;DHT22;29544;52.018;5.810;2023-03-14T07:53:08;17.20;55.30
43884;DHT22;29544;52.018;5.810;2023-03-14T07:55:34;17.20;55.40
43884;DHT22;29544;52.018;5.810;2023-03-14T07:57:59;17.20;55.30
43884;DHT22;29544;52.018;5.810;2023-03-14T08:00:25;17.20;55.30
43884;DHT22;29544;52.018;5.810;2023-03-14T08:02:51;17.20;55.40
43884;DHT22;29544;52.018;5.810;2023-03-14T08:05:16;17.20;55.40
43884;DHT22;29544;52.018;5.810;2023-03-14T08:07:42;17.20;55.30
43884;DHT22;29544;52.018;5.810;2023-03-14T08:10:08;17.20;55.30
43884;DHT22;29544;52.018;5.810;2023-03-14T08:12:34;17.20;55.30
43884;DHT22;29544;52.018;5.810;2023-03-14T08:14:59;17.20;55.40
43884;DHT22;29544;52.018;5.810;2023-03-14T08:17:25;17.20;55.50
43884;DHT22;29544;52.018;5.810;2023-03-14T08:19:51;17.10;55.40
43884;DHT22;29544;52.018;5.810;2023-03-14T08:22:16;17.20;55.50
43884;DHT22;29544;52.018;5.810;2023-03-14T08:24:42;17.20;55.50
43884;DHT22;29544;52.018;5.810;2023-03-14T08:27:07;17.10;55.60
43884;DHT22;29544;52.018;5.810;2023-03-14T08:29:33;17.10;55.60
43884;DHT22;29544;52.018;5.810;2023-03-14T08:31:59;17.10;55.60
43884;DHT22;29544;52.018;5.810;2023-03-14T08:34:24;17.10;55.70
43884;DHT22;29544;52.018;5.810;2023-03-14T08:36:49;17.10;55.70
43884;DHT22;29544;52.018;5.810;2023-03-14T08:39:15;17.10;55.70
43884;DHT22;29544;52.018;5.810;2023-03-14T08:41:41;17.10;55.70
43884;DHT22;29544;52.018;5.810;2023-03-14T08:44:08;17.10;55.70
43884;DHT22;29544;52.018;5.810;2023-03-14T08:46:35;17.10;55.80
43884;DHT22;29544;52.018;5.810;2023-03-14T08:49:00;17.10;55.80
43884;DHT22;29544;52.018;5.810;2023-03-14T08:51:26;17.10;55.80
43884;DHT22;29544;52.018;5.810;2023-03-14T08:53:51;17.10;55.70
43884;DHT22;29544;52.018;5.810;2023-03-14T08:56:17;17.10;55.80
43884;DHT22;29544;52.018;5.810;2023-03-14T08:58:42;17.10;55.60
43884;DHT22;29544;52.018;5.810;2023-03-14T09:01:10;17.10;55.70
43884;DHT22;29544;52.018;5.810;2023-03-14T09:03:36;17.10;55.60
43884;DHT22;29544;52.018;5.810;2023-03-14T09:06:07;17.10;55.70
43884;DHT22;29544;52.018;5.810;2023-03-14T09:08:33;17.00;55.60
43884;DHT22;29544;52.018;5.810;2023-03-14T09:10:59;17.00;55.60
43884;DHT22;29544;52.018;5.810;2023-03-14T09:13:24;17.10;55.60
43884;DHT22;29544;52.018;5.810;2023-03-14T09:15:51;17.00;55.60
43884;DHT22;29544;52.018;5.810;2023-03-14T09:18:17;17.00;55.50
43884;DHT22;29544;52.018;5.810;2023-03-14T09:20:43;17.00;55.60
43884;DHT22;29544;52.018;5.810;2023-03-14T09:23:08;17.00;55.60
43884;DHT22;29544;52.018;5.810;2023-03-14T09:25:34;17.00;55.60
43884;DHT22;29544;52.018;5.810;2023-03-14T09:27:59;17.00;55.60
43884;DHT22;29544;52.018;5.810;2023-03-14T09:30:25;17.00;55.50
43884;DHT22;29544;52.018;5.810;2023-03-14T09:32:50;17.00;55.50
43884;DHT22;29544;52.018;5.810;2023-03-14T09:35:16;17.00;55.40
43884;DHT22;29544;52.018;5.810;2023-03-14T09:37:41;17.00;55.40
43884;DHT22;29544;52.018;5.810;2023-03-14T09:40:15;17.00;55.40
43884;DHT22;29544;52.018;5.810;2023-03-14T09:42:42;17.00;55.40
43884;DHT22;29544;52.018;5.810;2023-03-14T09:45:16;17.00;55.40
43884;DHT22;29544;52.018;5.810;2023-03-14T09:47:43;17.00;55.30
43884;DHT22;29544;52.018;5.810;2023-03-14T09:50:13;17.00;55.30
43884;DHT22;29544;52.018;5.810;2023-03-14T09:52:51;17.00;55.30
43884;DHT22;29544;52.018;5.810;2023-03-14T09:55:22;16.90;55.30
43884;DHT22;29544;52.018;5.810;2023-03-14T09:57:58;17.00;55.30
43884;DHT22;29544;52.018;5.810;2023-03-14T10:00:27;17.00;55.30
43884;DHT22;29544;52.018;5.810;2023-03-14T10:02:56;17.00;55.30
43884;DHT22;29544;52.018;5.810;2023-03-14T10:05:23;16.90;55.20
43884;DHT22;29544;52.018;5.810;2023-03-14T10:07:49;17.00;55.20
43884;DHT22;29544;52.018;5.810;2023-03-14T10:10:25;17.00;55.60
43884;DHT22;29544;52.018;5.810;2023-03-14T10:15:28;17.00;55.40
43884;DHT22;29544;52.018;5.810;2023-03-14T10:17:54;17.00;55.40
43884;DHT22;29544;52.018;5.810;2023-03-14T10:22:57;17.00;55.60
43884;DHT22;29544;52.018;5.810;2023-03-14T10:25:27;17.00;55.20
43884;DHT22;29544;52.018;5.810;2023-03-14T10:27:53;16.90;55.10
43884;DHT22;29544;52.018;5.810;2023-03-14T10:33:10;16.90;55.00
43884;DHT22;29544;52.018;5.810;2023-03-14T10:35:36;17.00;55.00
43884;DHT22;29544;52.018;5.810;2023-03-14T10:38:03;16.90;55.00
43884;DHT22;29544;52.018;5.810;2023-03-14T10:40:36;16.90;55.00
43884;DHT22;29544;52.018;5.810;2023-03-14T10:43:05;16.90;54.90
43884;DHT22;29544;52.018;5.810;2023-03-14T10:45:41;16.90;54.90
43884;DHT22;29544;52.018;5.810;2023-03-14T10:50:48;16.90;54.80
43884;DHT22;29544;52.018;5.810;2023-03-14T10:53:16;16.90;54.80
43884;DHT22;29544;52.018;5.810;2023-03-14T10:55:44;16.90;54.80
43884;DHT22;29544;52.018;5.810;2023-03-14T10:58:28;16.90;54.80
43884;DHT22;29544;52.018;5.810;2023-03-14T11:03:40;16.90;54.80
43884;DHT22;29544;52.018;5.810;2023-03-14T11:09:10;16.90;54.70
43884;DHT22;29544;52.018;5.810;2023-03-14T11:11:39;16.90;55.00
43884;DHT22;29544;52.018;5.810;2023-03-14T11:17:14;17.00;55.50
43884;DHT22;29544;52.018;5.810;2023-03-14T11:19:58;17.00;55.60
43884;DHT22;29544;52.018;5.810;2023-03-14T11:27:43;17.10;55.50
43884;DHT22;29544;52.018;5.810;2023-03-14T11:30:35;17.10;55.50
43884;DHT22;29544;52.018;5.810;2023-03-14T11:33:13;17.00;55.20
43884;DHT22;29544;52.018;5.810;2023-03-14T11:38:34;17.00;55.00
43884;DHT22;29544;52.018;5.810;2023-03-14T11:41:02;17.00;54.90
43884;DHT22;29544;52.018;5.810;2023-03-14T11:43:33;17.00;54.90
43884;DHT22;29544;52.018;5.810;2023-03-14T11:46:05;17.00;54.80
43884;DHT22;29544;52.018;5.810;2023-03-14T11:51:29;17.00;54.90
43884;DHT22;29544;52.018;5.810;2023-03-14T11:56:57;17.20;55.30
43884;DHT22;29544;52.018;5.810;2023-03-14T11:59:32;17.30;55.40
43884;DHT22;29544;52.018;5.810;2023-03-14T12:02:09;17.30;55.50
43884;DHT22;29544;52.018;5.810;2023-03-14T12:10:51;17.50;55.30
43884;DHT22;29544;52.018;5.810;2023-03-14T12:13:18;17.50;55.20
43884;DHT22;29544;52.018;5.810;2023-03-14T12:15:56;17.50;55.00
43884;DHT22;29544;52.018;5.810;2023-03-14T12:18:31;17.60;55.00
43884;DHT22;29544;52.018;5.810;2023-03-14T12:21:02;17.60;54.90
43884;DHT22;29544;52.018;5.810;2023-03-14T12:23:44;17.70;54.80
43884;DHT22;29544;52.018;5.810;2023-03-14T12:26:21;17.70;54.60
43884;DHT22;29544;52.018;5.810;2023-03-14T12:42:21;17.90;53.30
43884;DHT22;29544;52.018;5.810;2023-03-14T12:45:24;18.10;53.40
43884;DHT22;29544;52.018;5.810;2023-03-14T12:47:53;18.00;53.20
43884;DHT22;29544;52.018;5.810;2023-03-14T12:50:32;18.10;53.20
43884;DHT22;29544;52.018;5.810;2023-03-14T12:53:57;18.10;53.10
43884;DHT22;29544;52.018;5.810;2023-03-14T13:01:33;18.30;52.90
43884;DHT22;29544;52.018;5.810;2023-03-14T13:04:09;18.30;52.80
43884;DHT22;29544;52.018;5.810;2023-03-14T13:06:46;18.40;52.80
43884;DHT22;29544;52.018;5.810;2023-03-14T13:12:13;18.40;52.60
43884;DHT22;29544;52.018;5.810;2023-03-14T13:14:49;18.50;52.50
43884;DHT22;29544;52.018;5.810;2023-03-14T13:17:29;18.50;52.40
43884;DHT22;29544;52.018;5.810;2023-03-14T13:19:58;18.50;52.30
43884;DHT22;29544;52.018;5.810;2023-03-14T13:22:27;18.50;52.20
43884;DHT22;29544;52.018;5.810;2023-03-14T13:25:05;18.60;52.20
43884;DHT22;29544;52.018;5.810;2023-03-14T13:27:33;18.50;52.00
43884;DHT22;29544;52.018;5.810;2023-03-14T13:30:18;18.60;51.90
43884;DHT22;29544;52.018;5.810;2023-03-14T13:32:46;18.50;52.00
43884;DHT22;29544;52.018;5.810;2023-03-14T13:35:22;18.60;51.90
43884;DHT22;29544;52.018;5.810;2023-03-14T13:37:53;18.60;51.80
43884;DHT22;29544;52.018;5.810;2023-03-14T13:40:40;18.60;51.70
43884;DHT22;29544;52.018;5.810;2023-03-14T13:43:17;18.60;51.50
43884;DHT22;29544;52.018;5.810;2023-03-14T13:45:47;18.60;51.40
43884;DHT22;29544;52.018;5.810;2023-03-14T13:48:13;18.60;51.10
43884;DHT22;29544;52.018;5.810;2023-03-14T13:50:45;18.60;51.00
43884;DHT22;29544;52.018;5.810;2023-03-14T13:53:11;18.60;50.80
43884;DHT22;29544;52.018;5.810;2023-03-14T13:55:37;18.60;50.80
43884;DHT22;29544;52.018;5.810;2023-03-14T13:58:02;18.60;50.40
43884;DHT22;29544;52.018;5.810;2023-03-14T14:00:28;18.60;50.70
43884;DHT22;29544;52.018;5.810;2023-03-14T14:02:54;18.60;50.80
43884;DHT22;29544;52.018;5.810;2023-03-14T14:05:21;18.60;50.70
43884;DHT22;29544;52.018;5.810;2023-03-14T14:07:49;18.70;50.70
43884;DHT22;29544;52.018;5.810;2023-03-14T14:10:15;18.70;50.70
43884;DHT22;29544;52.018;5.810;2023-03-14T14:12:46;18.70;50.80
43884;DHT22;29544;52.018;5.810;2023-03-14T14:15:30;18.70;50.50
43884;DHT22;29544;52.018;5.810;2023-03-14T14:18:01;18.70;50.30
43884;DHT22;29544;52.018;5.810;2023-03-14T14:20:31;18.60;50.10
43884;DHT22;29544;52.018;5.810;2023-03-14T14:23:01;18.60;50.00
43884;DHT22;29544;52.018;5.810;2023-03-14T14:25:31;18.60;50.00
43884;DHT22;29544;52.018;5.810;2023-03-14T14:27:57;18.60;50.00
43884;DHT22;29544;52.018;5.810;2023-03-14T14:30:32;18.60;49.70
43884;DHT22;29544;52.018;5.810;2023-03-14T14:33:37;18.60;49.60
43884;DHT22;29544;52.018;5.810;2023-03-14T14:36:03;18.60;49.60
43884;DHT22;29544;52.018;5.810;2023-03-14T14:38:29;18.60;49.70
43884;DHT22;29544;52.018;5.810;2023-03-14T14:41:00;18.60;49.60
43884;DHT22;29544;52.018;5.810;2023-03-14T14:43:28;18.60;49.60
43884;DHT22;29544;52.018;5.810;2023-03-14T14:45:56;18.50;49.40
43884;DHT22;29544;52.018;5.810;2023-03-14T14:48:25;18.50;49.40
43884;DHT22;29544;52.018;5.810;2023-03-14T14:53:41;18.50;49.20
43884;DHT22;29544;52.018;5.810;2023-03-14T14:56:25;18.50;49.10
43884;DHT22;29544;52.018;5.810;2023-03-14T14:58:55;18.40;49.00
43884;DHT22;29544;52.018;5.810;2023-03-14T15:01:24;18.50;49.00
43884;DHT22;29544;52.018;5.810;2023-03-14T15:03:53;18.40;49.00
43884;DHT22;29544;52.018;5.810;2023-03-14T15:06:19;18.40;48.90
43884;DHT22;29544;52.018;5.810;2023-03-14T15:08:47;18.40;48.90
43884;DHT22;29544;52.018;5.810;2023-03-14T15:11:18;18.30;48.80
43884;DHT22;29544;52.018;5.810;2023-03-14T15:13:44;18.30;48.80
43884;DHT22;29544;52.018;5.810;2023-03-14T15:16:15;18.20;48.80
43884;DHT22;29544;52.018;5.810;2023-03-14T15:18:42;18.30;48.80
43884;DHT22;29544;52.018;5.810;2023-03-14T15:21:09;18.20;48.80
43884;DHT22;29544;52.018;5.810;2023-03-14T15:23:35;18.20;48.70
43884;DHT22;29544;52.018;5.810;2023-03-14T15:26:00;18.20;48.80
43884;DHT22;29544;52.018;5.810;2023-03-14T15:28:28;18.20;49.50
43884;DHT22;29544;52.018;5.810;2023-03-14T15:30:57;18.10;48.80
43884;DHT22;29544;52.018;5.810;2023-03-14T15:33:23;18.10;48.70
43884;DHT22;29544;52.018;5.810;2023-03-14T15:35:49;18.10;48.70
43884;DHT22;29544;52.018;5.810;2023-03-14T15:38:18;18.10;48.80
43884;DHT22;29544;52.018;5.810;2023-03-14T15:40:49;18.10;48.80
43884;DHT22;29544;52.018;5.810;2023-03-14T15:43:15;18.10;48.80
43884;DHT22;29544;52.018;5.810;2023-03-14T15:45:41;18.00;48.80
43884;DHT22;29544;52.018;5.810;2023-03-14T15:48:17;18.00;48.80
43884;DHT22;29544;52.018;5.810;2023-03-14T15:50:43;17.90;48.80
43884;DHT22;29544;52.018;5.810;2023-03-14T15:53:09;17.90;48.60
43884;DHT22;29544;52.018;5.810;2023-03-14T15:55:34;17.90;48.80
43884;DHT22;29544;52.018;5.810;2023-03-14T15:58:00;17.90;48.70
43884;DHT22;29544;52.018;5.810;2023-03-14T16:00:28;17.80;48.70
43884;DHT22;29544;52.018;5.810;2023-03-14T16:02:53;17.80;48.70
43884;DHT22;29544;52.018;5.810;2023-03-14T16:05:19;17.80;48.70
43884;DHT22;29544;52.018;5.810;2023-03-14T16:07:45;17.70;48.70
43884;DHT22;29544;52.018;5.810;2023-03-14T16:10:12;17.70;48.60
43884;DHT22;29544;52.018;5.810;2023-03-14T16:12:38;17.70;48.60
43884;DHT22;29544;52.018;5.810;2023-03-14T16:15:04;17.60;48.60
43884;DHT22;29544;52.018;5.810;2023-03-14T16:17:30;17.60;48.70
43884;DHT22;29544;52.018;5.810;2023-03-14T16:19:56;17.60;48.60
43884;DHT22;29544;52.018;5.810;2023-03-14T16:22:21;17.60;48.60
43884;DHT22;29544;52.018;5.810;2023-03-14T16:24:47;17.50;48.60
43884;DHT22;29544;52.018;5.810;2023-03-14T16:27:12;17.50;48.60
43884;DHT22;29544;52.018;5.810;2023-03-14T16:29:38;17.50;48.60
43884;DHT22;29544;52.018;5.810;2023-03-14T16:32:04;17.40;48.60
43884;DHT22;29544;52.018;5.810;2023-03-14T16:34:29;17.50;48.50
43884;DHT22;29544;52.018;5.810;2023-03-14T16:36:56;17.40;48.60
43884;DHT22;29544;52.018;5.810;2023-03-14T16:39:21;17.40;48.60
43884;DHT22;29544;52.018;5.810;2023-03-14T16:41:47;17.40;48.60
43884;DHT22;29544;52.018;5.810;2023-03-14T16:44:12;17.30;48.50